createdAt,value
2022-07-30T00:01:21.896Z,23.70
2022-07-30T00:03:49.531Z,23.60
2022-07-30T00:06:19.018Z,23.70
2022-07-30T00:08:46.277Z,23.60
2022-07-30T00:11:13.633Z,23.60
2022-07-30T00:13:41.221Z,23.50
2022-07-30T00:16:08.594Z,23.50
2022-07-30T00:18:35.913Z,23.50
2022-07-30T00:21:04.286Z,23.40
2022-07-30T00:23:32.505Z,23.40
2022-07-30T00:26:03.096Z,23.30
2022-07-30T00:28:32.237Z,23.30
2022-07-30T00:31:00.612Z,23.20
2022-07-30T00:33:28.607Z,23.20
2022-07-30T00:35:55.810Z,23.10
2022-07-30T00:38:23.010Z,23.10
2022-07-30T00:40:50.194Z,23.00
2022-07-30T00:43:18.122Z,23.00
2022-07-30T00:45:45.563Z,23.00
2022-07-30T00:48:14.368Z,22.90
2022-07-30T00:50:41.834Z,22.90
2022-07-30T00:53:15.027Z,22.90
2022-07-30T00:55:42.374Z,22.80
2022-07-30T00:58:09.674Z,22.80
2022-07-30T01:00:37.484Z,22.80
2022-07-30T01:03:06.988Z,22.70
2022-07-30T01:05:34.474Z,22.70
2022-07-30T01:08:01.617Z,22.70
2022-07-30T01:10:28.824Z,22.60
2022-07-30T01:12:59.204Z,22.60
2022-07-30T01:15:27.109Z,22.60
2022-07-30T01:17:58.130Z,22.60
2022-07-30T01:20:32.149Z,22.60
2022-07-30T01:23:08.820Z,22.50
2022-07-30T01:25:58.110Z,22.40
2022-07-30T01:28:46.972Z,22.40
2022-07-30T01:31:16.093Z,22.40
2022-07-30T01:33:46.010Z,22.40
2022-07-30T01:36:15.535Z,22.30
2022-07-30T01:38:47.224Z,22.30
2022-07-30T01:41:16.148Z,22.30
2022-07-30T01:43:45.944Z,22.30
2022-07-30T01:46:15.185Z,22.30
2022-07-30T01:48:44.317Z,22.20
2022-07-30T01:51:13.460Z,22.20
2022-07-30T01:53:43.142Z,22.20
2022-07-30T01:56:16.882Z,22.20
2022-07-30T01:58:46.715Z,22.20
2022-07-30T02:01:14.214Z,22.30
2022-07-30T02:03:41.738Z,22.30
2022-07-30T02:06:26.644Z,22.30
2022-07-30T02:08:59.631Z,22.30
2022-07-30T02:11:45.620Z,22.30
2022-07-30T02:14:23.836Z,22.30
2022-07-30T02:16:56.262Z,22.30
2022-07-30T02:19:32.749Z,22.20
2022-07-30T02:22:08.511Z,22.20
2022-07-30T02:24:37.774Z,22.20
2022-07-30T02:27:18.450Z,22.10
2022-07-30T02:29:48.220Z,22.10
2022-07-30T02:32:20.365Z,22.10
2022-07-30T02:34:52.015Z,22.10
2022-07-30T02:37:39.211Z,22.00
2022-07-30T02:40:13.994Z,22.00
2022-07-30T02:42:43.801Z,22.00
2022-07-30T02:45:12.643Z,22.00
2022-07-30T02:47:41.121Z,21.90
2022-07-30T02:50:10.938Z,21.90
2022-07-30T02:52:40.633Z,21.90
2022-07-30T02:55:11.150Z,21.80
2022-07-30T02:57:43.313Z,21.80
2022-07-30T03:00:12.120Z,21.80
2022-07-30T03:02:43.578Z,21.70
2022-07-30T03:05:13.905Z,21.70
2022-07-30T03:07:42.266Z,21.70
2022-07-30T03:10:11.458Z,21.60
2022-07-30T03:12:40.566Z,21.60
2022-07-30T03:15:09.387Z,21.50
2022-07-30T03:17:44.323Z,21.50
2022-07-30T03:20:15.620Z,21.50
2022-07-30T03:22:44.611Z,21.50
2022-07-30T03:25:15.492Z,21.50
2022-07-30T03:27:45.702Z,21.50
2022-07-30T03:30:14.888Z,21.50
2022-07-30T03:32:43.559Z,21.50
2022-07-30T03:35:16.921Z,21.50
2022-07-30T03:37:46.296Z,21.50
2022-07-30T03:40:15.383Z,21.40
2022-07-30T03:42:43.903Z,21.50
2022-07-30T03:45:13.820Z,21.50
2022-07-30T03:47:43.275Z,21.50
2022-07-30T03:50:10.893Z,21.50
2022-07-30T03:52:41.288Z,21.50
2022-07-30T03:55:12.632Z,21.50
2022-07-30T03:57:40.221Z,21.60
2022-07-30T04:00:15.823Z,21.60
2022-07-30T04:02:47.592Z,21.60
2022-07-30T04:05:16.096Z,21.60
2022-07-30T04:07:45.239Z,21.60
2022-07-30T04:10:15.128Z,21.70
2022-07-30T04:12:42.614Z,21.60
2022-07-30T04:16:37.886Z,21.70
2022-07-30T04:18:03.083Z,21.70
2022-07-30T04:20:34.749Z,21.70
2022-07-30T04:23:03.391Z,21.70
2022-07-30T04:25:32.026Z,21.70
2022-07-30T04:28:03.050Z,21.70
2022-07-30T04:30:34.984Z,21.70
2022-07-30T04:33:04.417Z,21.70
2022-07-30T04:35:50.953Z,21.70
2022-07-30T04:38:20.349Z,21.70
2022-07-30T04:40:48.102Z,21.70
2022-07-30T04:43:16.169Z,21.70
2022-07-30T04:45:44.948Z,21.60
2022-07-30T04:48:12.288Z,21.60
2022-07-30T04:50:42.374Z,21.50
2022-07-30T04:53:11.318Z,21.40
2022-07-30T04:55:42.598Z,21.30
2022-07-30T04:58:11.432Z,21.20
2022-07-30T05:00:41.303Z,21.30
2022-07-30T05:03:13.081Z,21.20
2022-07-30T05:05:41.165Z,21.20
2022-07-30T05:08:08.728Z,21.20
2022-07-30T05:10:38.609Z,21.30
2022-07-30T05:13:13.065Z,21.30
2022-07-30T05:15:40.623Z,21.20
2022-07-30T05:18:08.665Z,21.20
2022-07-30T05:20:35.862Z,21.20
2022-07-30T05:23:03.532Z,21.20
2022-07-30T05:25:30.739Z,21.20
2022-07-30T05:27:58.388Z,21.20
2022-07-30T05:30:27.424Z,21.10
2022-07-30T05:32:56.035Z,21.10
2022-07-30T05:35:23.579Z,21.10
2022-07-30T05:37:50.775Z,21.10
2022-07-30T05:40:20.245Z,21.10
2022-07-30T05:42:47.415Z,21.20
2022-07-30T05:45:14.591Z,21.20
2022-07-30T05:47:41.799Z,21.20
2022-07-30T05:50:09.629Z,21.20
2022-07-30T05:52:36.779Z,21.10
2022-07-30T05:55:04.300Z,21.20
2022-07-30T05:57:36.116Z,21.20
2022-07-30T06:00:08.226Z,21.20
2022-07-30T06:02:40.793Z,21.20
2022-07-30T06:05:10.354Z,21.20
2022-07-30T06:07:37.651Z,21.20
2022-07-30T06:10:07.535Z,21.20
2022-07-30T06:12:34.732Z,21.10
2022-07-30T06:15:02.231Z,21.20
2022-07-30T06:17:31.817Z,21.20
2022-07-30T06:20:11.947Z,21.20
2022-07-30T06:22:40.417Z,21.20
2022-07-30T06:25:08.950Z,21.20
2022-07-30T06:27:39.764Z,21.10
2022-07-30T06:30:10.290Z,21.10
2022-07-30T06:32:39.929Z,21.10
2022-07-30T06:35:07.965Z,21.10
2022-07-30T06:38:00.566Z,21.20
2022-07-30T06:40:22.499Z,21.10
2022-07-30T06:42:49.720Z,21.20
2022-07-30T06:45:18.671Z,21.20
2022-07-30T06:47:46.358Z,21.30
2022-07-30T06:50:13.643Z,21.30
2022-07-30T06:52:40.792Z,21.40
2022-07-30T06:55:08.291Z,21.40
2022-07-30T06:57:40.126Z,21.40
2022-07-30T07:00:11.636Z,21.40
2022-07-30T07:02:39.655Z,21.40
2022-07-30T07:05:07.513Z,21.40
2022-07-30T07:07:41.879Z,21.30
2022-07-30T07:10:19.453Z,21.30
2022-07-30T07:12:47.709Z,21.30
2022-07-30T07:15:16.248Z,21.30
2022-07-30T07:17:43.501Z,21.40
2022-07-30T07:20:11.188Z,21.30
2022-07-30T07:22:38.494Z,21.40
2022-07-30T07:25:06.938Z,21.40
2022-07-30T07:27:34.319Z,21.40
2022-07-30T07:30:04.938Z,21.50
2022-07-30T07:32:34.642Z,21.40
2022-07-30T07:35:02.361Z,21.50
2022-07-30T07:37:29.923Z,21.50
2022-07-30T07:39:57.744Z,21.40
2022-07-30T07:42:26.877Z,21.40
2022-07-30T07:44:54.167Z,21.40
2022-07-30T07:47:21.394Z,21.40
2022-07-30T07:49:48.796Z,21.40
2022-07-30T07:52:16.053Z,21.30
2022-07-30T07:54:49.447Z,21.30
2022-07-30T07:57:17.574Z,21.30
2022-07-30T07:59:49.961Z,21.40
2022-07-30T08:02:20.374Z,21.40
2022-07-30T08:04:47.660Z,21.50
2022-07-30T08:07:15.086Z,21.50
2022-07-30T08:09:44.537Z,21.50
2022-07-30T08:12:13.371Z,21.50
2022-07-30T08:14:40.568Z,21.50
2022-07-30T08:17:08.568Z,21.50
2022-07-30T08:19:37.615Z,21.60
2022-07-30T08:22:04.869Z,21.60
2022-07-30T08:24:32.794Z,21.90
2022-07-30T08:27:00.552Z,21.90
2022-07-30T08:29:27.943Z,22.00
2022-07-30T08:31:57.434Z,22.00
2022-07-30T08:34:25.595Z,22.10
2022-07-30T08:36:53.130Z,22.30
2022-07-30T08:39:20.305Z,22.40
2022-07-30T08:41:48.805Z,22.40
2022-07-30T08:44:18.338Z,22.40
2022-07-30T08:46:48.033Z,22.40
2022-07-30T08:49:16.081Z,22.30
2022-07-30T08:51:43.731Z,22.20
2022-07-30T08:54:11.441Z,22.20
2022-07-30T08:56:38.752Z,22.40
2022-07-30T08:59:07.158Z,22.40
2022-07-30T09:01:34.328Z,22.30
2022-07-30T09:04:02.150Z,22.40
2022-07-30T09:06:29.899Z,22.50
2022-07-30T09:08:57.126Z,22.60
2022-07-30T09:11:24.299Z,22.60
2022-07-30T09:13:51.781Z,22.60
2022-07-30T09:16:26.841Z,22.80
2022-07-30T09:18:54.804Z,22.90
2022-07-30T09:21:24.947Z,22.90
2022-07-30T09:24:04.958Z,23.00
2022-07-30T09:26:36.146Z,23.10
2022-07-30T09:29:33.235Z,23.10
2022-07-30T09:32:03.568Z,23.00
2022-07-30T09:34:38.844Z,23.10
2022-07-30T09:37:18.524Z,23.30
2022-07-30T09:39:58.718Z,23.30
2022-07-30T09:42:28.487Z,23.40
2022-07-30T09:45:10.023Z,23.50
2022-07-30T09:47:39.871Z,23.50
2022-07-30T09:50:11.424Z,23.60
2022-07-30T09:52:44.047Z,23.60
2022-07-30T09:55:30.975Z,23.60
2022-07-30T09:58:01.601Z,23.70
2022-07-30T10:00:30.809Z,23.80
2022-07-30T10:03:00.800Z,23.90
2022-07-30T10:05:51.010Z,24.00
2022-07-30T10:08:21.783Z,24.10
2022-07-30T10:10:50.940Z,24.20
2022-07-30T10:13:20.641Z,24.20
2022-07-30T10:15:50.050Z,24.10
2022-07-30T10:18:18.328Z,24.00
2022-07-30T10:20:48.239Z,24.10
2022-07-30T10:23:16.102Z,24.10
2022-07-30T10:25:49.756Z,24.20
2022-07-30T10:28:26.798Z,24.20
2022-07-30T10:30:55.232Z,24.30
2022-07-30T10:33:37.744Z,24.40
2022-07-30T10:36:11.318Z,24.40
2022-07-30T10:38:41.716Z,24.50
2022-07-30T10:41:42.568Z,24.50
2022-07-30T10:44:24.989Z,24.70
2022-07-30T10:47:10.982Z,24.80
2022-07-30T10:49:49.956Z,25.00
2022-07-30T10:55:36.788Z,25.50
2022-07-30T10:58:32.830Z,25.90
2022-07-30T11:01:04.582Z,25.90
2022-07-30T11:04:25.547Z,26.00
2022-07-30T11:07:23.586Z,26.10
2022-07-30T11:10:08.743Z,26.00
2022-07-30T11:12:44.065Z,26.00
2022-07-30T11:15:19.288Z,26.00
2022-07-30T11:18:04.552Z,26.00
2022-07-30T11:20:39.802Z,25.90
2022-07-30T11:23:19.524Z,25.80
2022-07-30T11:25:51.239Z,25.70
2022-07-30T11:28:45.370Z,25.70
2022-07-30T11:31:37.190Z,25.70
2022-07-30T11:34:30.515Z,25.80
2022-07-30T11:37:18.336Z,25.90
2022-07-30T11:39:56.799Z,26.00
2022-07-30T11:42:29.581Z,26.10
2022-07-30T11:45:27.481Z,26.30
2022-07-30T11:48:01.809Z,26.40
2022-07-30T11:50:49.043Z,26.80
2022-07-30T11:53:21.869Z,27.10
2022-07-30T11:55:57.942Z,27.20
2022-07-30T11:58:34.832Z,27.00
2022-07-30T12:01:11.857Z,26.80
2022-07-30T12:03:44.700Z,26.60
2022-07-30T12:06:18.272Z,26.40
2022-07-30T12:08:47.813Z,26.30
2022-07-30T12:11:15.776Z,26.50
2022-07-30T12:13:55.099Z,26.60
2022-07-30T12:16:22.687Z,26.80
2022-07-30T12:18:49.973Z,26.80
2022-07-30T12:21:17.909Z,26.90
2022-07-30T12:24:00.853Z,27.00
2022-07-30T12:26:31.195Z,27.10
2022-07-30T12:29:00.782Z,27.10
2022-07-30T12:31:28.278Z,27.20
2022-07-30T12:33:58.255Z,27.20
2022-07-30T12:36:33.832Z,27.20
2022-07-30T12:39:02.860Z,27.40
2022-07-30T12:41:51.117Z,27.50
2022-07-30T12:44:42.062Z,27.50
2022-07-30T12:47:52.438Z,27.60
2022-07-30T12:50:19.851Z,27.90
2022-07-30T12:52:56.122Z,28.10
2022-07-30T12:55:36.053Z,28.10
2022-07-30T12:58:08.997Z,27.70
2022-07-30T13:00:54.965Z,27.20
2022-07-30T13:03:30.330Z,26.80
2022-07-30T13:05:59.156Z,26.60
2022-07-30T13:08:54.006Z,26.50
2022-07-30T13:11:24.157Z,26.40
2022-07-30T13:13:53.911Z,26.60
2022-07-30T13:16:25.620Z,26.60
2022-07-30T13:18:53.564Z,26.50
2022-07-30T13:21:22.834Z,26.70
2022-07-30T13:23:50.618Z,26.80
2022-07-30T13:26:17.958Z,27.10
2022-07-30T13:28:46.685Z,27.40
2022-07-30T13:31:15.140Z,27.50
2022-07-30T13:33:42.692Z,27.80
2022-07-30T13:36:10.562Z,27.80
2022-07-30T13:38:38.247Z,27.80
2022-07-30T13:41:05.778Z,27.80
2022-07-30T13:43:34.684Z,28.00
2022-07-30T13:46:03.331Z,28.20
2022-07-30T13:48:30.761Z,28.40
2022-07-30T13:50:58.223Z,28.40
2022-07-30T13:53:25.998Z,28.40
2022-07-30T13:55:53.213Z,28.40
2022-07-30T13:58:20.514Z,28.40
2022-07-30T14:00:48.396Z,28.20
2022-07-30T14:03:15.881Z,28.10
2022-07-30T14:05:43.836Z,28.10
2022-07-30T14:08:12.159Z,28.10
2022-07-30T14:10:40.969Z,28.10
2022-07-30T14:13:19.182Z,28.10
2022-07-30T14:15:48.700Z,27.90
2022-07-30T14:18:16.030Z,28.00
2022-07-30T14:20:46.858Z,28.00
2022-07-30T14:23:16.611Z,28.10
2022-07-30T14:25:44.673Z,28.10
2022-07-30T14:28:12.064Z,28.10
2022-07-30T14:30:39.476Z,28.20
2022-07-30T14:33:06.773Z,28.10
2022-07-30T14:35:34.216Z,28.00
2022-07-30T14:38:03.609Z,28.00
2022-07-30T14:40:30.956Z,28.00
2022-07-30T14:42:59.691Z,27.90
2022-07-30T14:45:27.334Z,27.70
2022-07-30T14:47:57.292Z,27.60
2022-07-30T14:50:24.462Z,27.40
2022-07-30T14:52:52.178Z,27.30
2022-07-30T14:55:19.528Z,27.00
2022-07-30T14:57:46.735Z,26.80
2022-07-30T15:00:14.483Z,26.60
2022-07-30T15:02:41.768Z,26.40
2022-07-30T15:05:09.669Z,26.30
2022-07-30T15:07:37.508Z,26.20
2022-07-30T15:10:07.373Z,26.00
2022-07-30T15:12:34.597Z,25.90
2022-07-30T15:15:09.135Z,25.80
2022-07-30T15:17:38.970Z,25.70
2022-07-30T15:20:11.480Z,25.70
2022-07-30T15:22:38.732Z,25.70
2022-07-30T15:25:06.645Z,25.70
2022-07-30T15:27:34.551Z,25.70
2022-07-30T15:30:03.052Z,25.70
2022-07-30T15:32:30.432Z,25.70
2022-07-30T15:34:58.986Z,25.80
2022-07-30T15:37:26.859Z,26.00
2022-07-30T15:39:54.853Z,26.10
2022-07-30T15:42:22.285Z,26.30
2022-07-30T15:45:14.251Z,26.50
2022-07-30T15:47:36.987Z,26.70
2022-07-30T15:50:05.595Z,26.80
2022-07-30T15:52:33.136Z,26.90
2022-07-30T15:55:00.311Z,26.90
2022-07-30T15:57:27.608Z,26.60
2022-07-30T15:59:54.797Z,26.50
2022-07-30T16:02:26.383Z,26.50
2022-07-30T16:04:54.296Z,26.50
2022-07-30T16:07:21.872Z,26.70
2022-07-30T16:09:49.111Z,27.00
2022-07-30T16:12:17.673Z,27.20
2022-07-30T16:14:44.971Z,27.20
2022-07-30T16:17:18.574Z,27.10
2022-07-30T16:19:45.832Z,27.10
2022-07-30T16:22:21.548Z,27.20
2022-07-30T16:24:51.341Z,27.80
2022-07-30T16:27:18.785Z,27.80
2022-07-30T16:29:46.807Z,27.50
2022-07-30T16:32:14.091Z,27.10
2022-07-30T16:34:42.418Z,26.90
2022-07-30T16:37:10.055Z,26.50
2022-07-30T16:39:37.226Z,26.30
2022-07-30T16:42:05.049Z,26.20
2022-07-30T16:44:34.195Z,26.00
2022-07-30T16:47:01.749Z,26.00
2022-07-30T16:49:30.449Z,26.20
2022-07-30T16:51:57.725Z,26.10
2022-07-30T16:54:25.097Z,26.10
2022-07-30T16:57:00.033Z,26.00
2022-07-30T16:59:34.856Z,25.90
2022-07-30T17:02:03.966Z,25.80
2022-07-30T17:04:31.274Z,25.70
2022-07-30T17:06:58.423Z,25.60
2022-07-30T17:09:25.955Z,25.60
2022-07-30T17:11:54.759Z,25.50
2022-07-30T17:14:26.789Z,25.50
2022-07-30T17:16:54.019Z,25.30
2022-07-30T17:19:21.135Z,25.20
2022-07-30T17:21:48.391Z,25.10
2022-07-30T17:24:15.702Z,25.00
2022-07-30T17:26:43.827Z,25.00
2022-07-30T17:29:16.801Z,24.90
2022-07-30T17:31:44.857Z,24.70
2022-07-30T17:34:14.600Z,24.50
2022-07-30T17:36:51.809Z,24.30
2022-07-30T17:40:19.309Z,24.10
2022-07-30T17:42:10.711Z,24.00
2022-07-30T17:44:39.548Z,23.80
2022-07-30T17:47:10.960Z,23.60
2022-07-30T17:49:39.768Z,23.30
2022-07-30T17:52:07.097Z,23.10
2022-07-30T17:54:34.398Z,23.00
2022-07-30T17:57:01.724Z,22.80
2022-07-30T17:59:29.335Z,22.60
2022-07-30T18:01:59.842Z,22.30
2022-07-30T18:04:27.719Z,22.10
2022-07-30T18:06:55.508Z,22.00
2022-07-30T18:09:22.694Z,21.90
2022-07-30T18:11:52.231Z,21.90
2022-07-30T18:14:19.640Z,21.80
2022-07-30T18:16:47.236Z,21.90
2022-07-30T18:19:22.667Z,21.90
2022-07-30T18:21:54.719Z,21.90
2022-07-30T18:24:24.582Z,21.90
2022-07-30T18:26:52.476Z,21.90
2022-07-30T18:29:20.951Z,21.80
2022-07-30T18:31:48.487Z,21.80
2022-07-30T18:34:16.241Z,21.80
2022-07-30T18:36:43.394Z,21.90
2022-07-30T18:39:10.651Z,21.90
2022-07-30T18:41:37.895Z,21.80
2022-07-30T18:44:05.103Z,21.80
2022-07-30T18:46:32.748Z,21.80
2022-07-30T18:49:20.948Z,21.80
2022-07-30T18:51:48.759Z,21.80
2022-07-30T18:54:18.212Z,21.60
2022-07-30T18:56:45.729Z,21.60
2022-07-30T18:59:13.558Z,21.60
2022-07-30T19:01:41.885Z,21.60
2022-07-30T19:04:10.770Z,21.50
2022-07-30T19:06:38.533Z,21.40
2022-07-30T19:09:09.126Z,21.40
2022-07-30T19:11:47.970Z,21.30
2022-07-30T19:14:15.670Z,21.20
2022-07-30T19:16:44.087Z,21.20
2022-07-30T19:19:15.127Z,21.20
2022-07-30T19:21:44.899Z,21.20
2022-07-30T19:24:12.580Z,21.20
2022-07-30T19:26:39.975Z,21.20
2022-07-30T19:29:12.803Z,21.20
2022-07-30T19:31:41.746Z,21.20
2022-07-30T19:34:10.930Z,21.20
2022-07-30T19:36:39.793Z,21.20
2022-07-30T19:39:08.248Z,21.20
2022-07-30T19:41:41.265Z,21.20
2022-07-30T19:44:12.875Z,21.20
2022-07-30T19:46:41.281Z,21.20
2022-07-30T19:49:11.561Z,21.10
2022-07-30T19:52:10.022Z,21.20
2022-07-30T19:54:27.954Z,21.20
2022-07-30T19:56:55.163Z,21.20
2022-07-30T19:59:43.672Z,21.20
2022-07-30T20:02:10.058Z,21.20
2022-07-30T20:04:37.377Z,21.20
2022-07-30T20:07:04.658Z,21.20
2022-07-30T20:09:31.975Z,21.20
2022-07-30T20:12:00.335Z,21.00
2022-07-30T20:14:30.173Z,21.00
2022-07-30T20:17:01.984Z,21.00
2022-07-30T20:19:35.981Z,20.90
2022-07-30T20:22:04.010Z,20.90
2022-07-30T20:24:34.027Z,20.80
2022-07-30T20:27:35.541Z,20.80
2022-07-30T20:29:49.066Z,20.80
2022-07-30T20:32:17.778Z,20.70
2022-07-30T20:34:47.597Z,20.70
2022-07-30T20:37:22.580Z,20.70
2022-07-30T20:39:50.471Z,20.70
2022-07-30T20:42:20.483Z,20.60
2022-07-30T20:44:53.610Z,20.60
2022-07-30T20:47:34.817Z,20.60
2022-07-30T20:50:09.644Z,20.50
2022-07-30T20:52:41.047Z,20.50
2022-07-30T20:55:22.175Z,20.50
2022-07-30T20:58:01.222Z,20.40
2022-07-30T21:00:37.576Z,20.40
2022-07-30T21:03:05.675Z,20.40
2022-07-30T21:05:36.592Z,20.40
2022-07-30T21:08:04.095Z,20.30
2022-07-30T21:10:36.454Z,20.30
2022-07-30T21:13:07.584Z,20.30
2022-07-30T21:15:36.260Z,20.20
2022-07-30T21:18:13.242Z,20.20
2022-07-30T21:20:42.166Z,20.20
2022-07-30T21:23:20.710Z,20.10
2022-07-30T21:26:02.096Z,20.20
2022-07-30T21:28:35.670Z,20.10
2022-07-30T21:31:07.149Z,20.10
2022-07-30T21:33:37.931Z,20.00
2022-07-30T21:36:12.734Z,20.00
2022-07-30T21:38:42.711Z,20.00
2022-07-30T21:44:00.072Z,20.00
2022-07-30T21:46:28.689Z,19.90
2022-07-30T21:48:58.516Z,20.00
2022-07-30T21:51:35.044Z,19.90
2022-07-30T21:54:07.174Z,19.90
2022-07-30T21:56:41.529Z,19.90
2022-07-30T21:59:24.636Z,20.00
2022-07-30T22:01:56.284Z,19.90
2022-07-30T22:04:23.901Z,19.90
2022-07-30T22:06:54.600Z,19.90
2022-07-30T22:09:33.858Z,19.90
2022-07-30T22:12:09.960Z,19.90
2022-07-30T22:14:43.510Z,20.00
2022-07-30T22:17:22.679Z,20.00
2022-07-30T22:19:53.001Z,20.00
2022-07-30T22:22:27.017Z,20.10
2022-07-30T22:24:57.154Z,20.10
2022-07-30T22:27:25.614Z,20.20
2022-07-30T22:29:55.752Z,20.20
2022-07-30T22:32:24.209Z,20.20
2022-07-30T22:34:52.904Z,20.20
2022-07-30T22:37:21.516Z,20.20
2022-07-30T22:39:51.745Z,20.20
2022-07-30T22:42:24.496Z,20.20
2022-07-30T22:44:53.166Z,20.10
2022-07-30T22:47:51.439Z,20.10
2022-07-30T22:50:12.530Z,20.10
2022-07-30T22:52:50.275Z,20.20
2022-07-30T22:55:27.354Z,20.10
2022-07-30T22:57:55.014Z,20.10
2022-07-30T23:00:28.252Z,20.20
2022-07-30T23:02:58.020Z,20.10
2022-07-30T23:05:25.570Z,20.20
2022-07-30T23:07:53.454Z,20.10
2022-07-30T23:10:21.141Z,20.10
2022-07-30T23:12:27.581Z,20.00
2022-07-30T23:12:51.911Z,20.10
2022-07-30T23:15:20.273Z,20.20
2022-07-30T23:17:48.202Z,20.20
2022-07-30T23:20:18.567Z,20.20
2022-07-30T23:22:46.123Z,20.20
2022-07-30T23:25:13.962Z,20.20
2022-07-30T23:27:41.823Z,20.20
2022-07-30T23:30:10.665Z,20.20
2022-07-30T23:32:38.780Z,20.20
2022-07-30T23:35:07.978Z,20.20
2022-07-30T23:37:48.230Z,20.20
2022-07-30T23:40:19.289Z,20.20
2022-07-30T23:42:47.874Z,20.20
2022-07-30T23:45:15.262Z,20.20
2022-07-30T23:48:00.827Z,20.20
2022-07-30T23:50:31.746Z,20.30
2022-07-30T23:52:59.542Z,20.20
2022-07-30T23:55:27.368Z,20.30
2022-07-30T23:57:54.914Z,20.30
